PWSweather.com
Personal Weather Stations
Station Observations
COONRAPIDS
Minneapolis, MN 55433

Minneapolis, MN 55433

Lat: 45.187721, Lon: -93.36828

Elevation: 898

Station Type: Davis Vantage Pro 2

Latest ConditionsUpdated 9:20:01 PM CST Monday, Jan 26, 2015
Currently Today's Max Today's Min Today's Average
Temperature 37.6°F3.1°C 45.2°F7.3°C 23.1°F-4.9°C 34.0°F1.1°C
Dew Point 28.7°F-1.8°C 32.9°F0.5°C 16.3°F-8.7°C 26.5°F-3.1°C
Winds 0.9 mph N1.4 kmh N 5.4 mph W8.7 kmh W - 1.0 mph 1.6 kmh
Wind Gusts 1.0 mph1.6 kmh 13.0 mph20.9 kmh - -
Humidity 70% 85% 62% 74%
Pressure 29.92 in1013.2 mb 29.99 in1015.6 mb 29.70 in1005.8 mb -
Hour Temp Dew Point Humidity Winds Wind Gusts Pressure Precip Precip Rate Daily Precip Total
09:20 PM 37.6°F3.1°C 28.7°F-1.8°C 70% 0.9 mph N1.4 kmh N 1.0 mph1.6 kmh 29.92 in1013.2 mb 0.00 in0.0 mm 0.00 in/hr0.0 mm/hr 0.00 in0.0 mm
09:10 PM 37.8°F3.2°C 28.5°F-1.9°C 69% Calm Calm -- 29.92 in1013.2 mb 0.00 in0.0 mm 0.00 in/hr0.0 mm/hr 0.00 in0.0 mm
09:00 PM 37.8°F3.2°C 28.5°F-1.9°C 69% Calm Calm -- 29.92 in1013.2 mb 0.00 in0.0 mm 0.00 in/hr0.0 mm/hr 0.00 in0.0 mm
08:50 PM 37.6°F3.1°C 29.0°F-1.7°C 71% Calm Calm -- 29.92 in1013.2 mb 0.00 in0.0 mm 0.00 in/hr0.0 mm/hr 0.00 in0.0 mm
08:40 PM 37.8°F3.2°C 29.2°F-1.6°C 71% Calm Calm 1.0 mph1.6 kmh 29.92 in1013.2 mb 0.00 in0.0 mm 0.00 in/hr0.0 mm/hr 0.00 in0.0 mm
08:30 PM 37.9°F3.3°C 29.3°F-1.5°C 71% 0.9 mph NNW1.4 kmh NNW 2.0 mph3.2 kmh 29.92 in1013.2 mb 0.00 in0.0 mm 0.00 in/hr0.0 mm/hr 0.00 in0.0 mm
08:20 PM 38.0°F3.3°C 29.4°F-1.4°C 71% Calm Calm 1.0 mph1.6 kmh 29.91 in1012.9 mb 0.00 in0.0 mm 0.00 in/hr0.0 mm/hr 0.00 in0.0 mm
08:10 PM 38.1°F3.4°C 29.2°F-1.6°C 70% Calm Calm -- 29.91 in1012.9 mb 0.00 in0.0 mm 0.00 in/hr0.0 mm/hr 0.00 in0.0 mm
08:00 PM 38.2°F3.4°C 29.3°F-1.5°C 70% 1.5 mph NW2.4 kmh NW 5.0 mph8.0 kmh 29.91 in1012.9 mb 0.00 in0.0 mm 0.00 in/hr0.0 mm/hr 0.00 in0.0 mm
07:50 PM 38.2°F3.4°C 29.3°F-1.5°C 70% 1.4 mph NW2.3 kmh NW 5.0 mph8.0 kmh 29.91 in1012.9 mb 0.00 in0.0 mm 0.00 in/hr0.0 mm/hr 0.00 in0.0 mm
07:40 PM 38.2°F3.4°C 29.3°F-1.5°C 70% 1.7 mph WNW2.7 kmh WNW 2.0 mph3.2 kmh 29.90 in1012.5 mb 0.00 in0.0 mm 0.00 in/hr0.0 mm/hr 0.00 in0.0 mm
07:30 PM 38.3°F3.5°C 29.4°F-1.4°C 70% 0.2 mph NW0.3 kmh NW 3.0 mph4.8 kmh 29.90 in1012.5 mb 0.00 in0.0 mm 0.00 in/hr0.0 mm/hr 0.00 in0.0 mm
07:20 PM 38.4°F3.6°C 29.5°F-1.4°C 70% Calm Calm 1.0 mph1.6 kmh 29.89 in1012.2 mb 0.00 in0.0 mm 0.00 in/hr0.0 mm/hr 0.00 in0.0 mm
07:10 PM 38.7°F3.7°C 29.4°F-1.4°C 69% 0.7 mph NW1.1 kmh NW -- 29.88 in1011.9 mb 0.00 in0.0 mm 0.00 in/hr0.0 mm/hr 0.00 in0.0 mm
07:00 PM 38.9°F3.8°C 29.2°F-1.6°C 68% Calm Calm -- 29.88 in1011.9 mb 0.00 in0.0 mm 0.00 in/hr0.0 mm/hr 0.00 in0.0 mm
06:50 PM 38.9°F3.8°C 29.2°F-1.6°C 68% 2.0 mph NW3.2 kmh NW 4.0 mph6.4 kmh 29.88 in1011.9 mb 0.00 in0.0 mm 0.00 in/hr0.0 mm/hr 0.00 in0.0 mm
06:40 PM 39.1°F3.9°C 29.4°F-1.4°C 68% 0.9 mph NW1.4 kmh NW 3.0 mph4.8 kmh 29.87 in1011.5 mb 0.00 in0.0 mm 0.00 in/hr0.0 mm/hr 0.00 in0.0 mm
06:30 PM 39.3°F4.1°C 29.3°F-1.5°C 67% 0.6 mph NW1.0 kmh NW 3.0 mph4.8 kmh 29.86 in1011.2 mb 0.00 in0.0 mm 0.00 in/hr0.0 mm/hr 0.00 in0.0 mm
06:20 PM 39.5°F4.2°C 29.1°F-1.6°C 66% 0.3 mph NNW0.5 kmh NNW 3.0 mph4.8 kmh 29.86 in1011.2 mb 0.00 in0.0 mm 0.00 in/hr0.0 mm/hr 0.00 in0.0 mm
06:10 PM 39.8°F4.3°C 29.3°F-1.5°C 66% 0.1 mph NW0.2 kmh NW -- 29.86 in1011.2 mb 0.00 in0.0 mm 0.00 in/hr0.0 mm/hr 0.00 in0.0 mm
06:00 PM 39.7°F4.3°C 29.3°F-1.5°C 66% 2.3 mph N3.7 kmh N 6.0 mph9.7 kmh 29.85 in1010.8 mb 0.00 in0.0 mm 0.00 in/hr0.0 mm/hr 0.00 in0.0 mm
05:50 PM 39.9°F4.4°C 29.5°F-1.4°C 66% 0.3 mph N0.5 kmh N -- 29.85 in1010.8 mb 0.00 in0.0 mm 0.00 in/hr0.0 mm/hr 0.00 in0.0 mm
05:40 PM 40.0°F4.4°C 29.6°F-1.3°C 66% 2.2 mph WNW3.5 kmh WNW -- 29.84 in1010.5 mb 0.00 in0.0 mm 0.00 in/hr0.0 mm/hr 0.00 in0.0 mm
05:30 PM 40.3°F4.6°C 29.5°F-1.4°C 65% 0.6 mph NW1.0 kmh NW 6.0 mph9.7 kmh 29.84 in1010.5 mb 0.00 in0.0 mm 0.00 in/hr0.0 mm/hr 0.00 in0.0 mm
05:20 PM 40.4°F4.7°C 29.9°F-1.2°C 66% 1.2 mph NW1.9 kmh NW 7.0 mph11.3 kmh 29.83 in1010.2 mb 0.00 in0.0 mm 0.00 in/hr0.0 mm/hr 0.00 in0.0 mm
05:10 PM 40.2°F4.6°C 30.8°F-0.7°C 69% 2.6 mph NW4.2 kmh NW 13.0 mph20.9 kmh 29.83 in1010.2 mb 0.00 in0.0 mm 0.00 in/hr0.0 mm/hr 0.00 in0.0 mm
05:00 PM 40.0°F4.4°C 32.1°F0.1°C 73% 0.1 mph WNW0.2 kmh WNW -- 29.83 in1010.2 mb 0.00 in0.0 mm 0.00 in/hr0.0 mm/hr 0.00 in0.0 mm
04:50 PM 40.2°F4.6°C 32.2°F0.1°C 73% 0.8 mph NW1.3 kmh NW 3.0 mph4.8 kmh 29.82 in1009.8 mb 0.00 in0.0 mm 0.00 in/hr0.0 mm/hr 0.00 in0.0 mm
04:40 PM 40.3°F4.6°C 32.0°F0.0°C 72% 0.1 mph WNW0.2 kmh WNW 3.0 mph4.8 kmh 29.81 in1009.5 mb 0.00 in0.0 mm 0.00 in/hr0.0 mm/hr 0.00 in0.0 mm
04:30 PM 40.4°F4.7°C 31.8°F-0.1°C 71% 1.1 mph W1.8 kmh W 2.0 mph3.2 kmh 29.80 in1009.1 mb 0.00 in0.0 mm 0.00 in/hr0.0 mm/hr 0.00 in0.0 mm
04:20 PM 40.7°F4.8°C 32.0°F0.0°C 71% 0.7 mph W1.1 kmh W -- 29.80 in1009.1 mb 0.00 in0.0 mm 0.00 in/hr0.0 mm/hr 0.00 in0.0 mm
04:10 PM 40.9°F4.9°C 31.9°F-0.1°C 70% 1.2 mph W1.9 kmh W 9.0 mph14.5 kmh 29.79 in1008.8 mb 0.00 in0.0 mm 0.00 in/hr0.0 mm/hr 0.00 in0.0 mm
04:00 PM 41.1°F5.1°C 31.7°F-0.2°C 69% Calm Calm -- 29.79 in1008.8 mb 0.00 in0.0 mm 0.00 in/hr0.0 mm/hr 0.00 in0.0 mm
03:50 PM 41.1°F5.1°C 32.1°F0.1°C 70% 0.8 mph NW1.3 kmh NW 7.0 mph11.3 kmh 29.79 in1008.8 mb 0.00 in0.0 mm 0.00 in/hr0.0 mm/hr 0.00 in0.0 mm
03:40 PM 41.3°F5.2°C 31.9°F-0.1°C 69% 1.8 mph NNW2.9 kmh NNW 3.0 mph4.8 kmh 29.78 in1008.5 mb 0.00 in0.0 mm 0.00 in/hr0.0 mm/hr 0.00 in0.0 mm
03:30 PM 41.5°F5.3°C 32.1°F0.1°C 69% 2.0 mph WNW3.2 kmh WNW 5.0 mph8.0 kmh 29.78 in1008.5 mb 0.00 in0.0 mm 0.00 in/hr0.0 mm/hr 0.00 in0.0 mm
03:20 PM 41.9°F5.5°C 32.1°F0.1°C 68% 1.5 mph W2.4 kmh W 5.0 mph8.0 kmh 29.78 in1008.5 mb 0.00 in0.0 mm 0.00 in/hr0.0 mm/hr 0.00 in0.0 mm
03:10 PM 42.2°F5.7°C 32.0°F0.0°C 67% 1.5 mph NW2.4 kmh NW 5.0 mph8.0 kmh 29.78 in1008.5 mb 0.00 in0.0 mm 0.00 in/hr0.0 mm/hr 0.00 in0.0 mm
03:00 PM 42.5°F5.8°C 31.6°F-0.2°C 65% Calm Calm 1.0 mph1.6 kmh 29.77 in1008.1 mb 0.00 in0.0 mm 0.00 in/hr0.0 mm/hr 0.00 in0.0 mm
02:50 PM 43.0°F6.1°C 31.6°F-0.2°C 64% 2.7 mph NW4.3 kmh NW 6.0 mph9.7 kmh 29.76 in1007.8 mb 0.00 in0.0 mm 0.00 in/hr0.0 mm/hr 0.00 in0.0 mm
02:40 PM 43.3°F6.3°C 31.6°F-0.2°C 63% 5.0 mph NW8.0 kmh NW 8.0 mph12.9 kmh 29.76 in1007.8 mb 0.00 in0.0 mm 0.00 in/hr0.0 mm/hr 0.00 in0.0 mm
02:30 PM 44.4°F6.9°C 32.6°F0.3°C 63% 1.9 mph N3.1 kmh N 8.0 mph12.9 kmh 29.75 in1007.5 mb 0.00 in0.0 mm 0.00 in/hr0.0 mm/hr 0.00 in0.0 mm
02:20 PM 45.2°F7.3°C 32.9°F0.5°C 62% 1.5 mph NW2.4 kmh NW 7.0 mph11.3 kmh 29.74 in1007.1 mb 0.00 in0.0 mm 0.00 in/hr0.0 mm/hr 0.00 in0.0 mm
02:10 PM 44.3°F6.8°C 32.5°F0.3°C 63% 5.4 mph W8.7 kmh W 7.0 mph11.3 kmh 29.74 in1007.1 mb 0.00 in0.0 mm 0.00 in/hr0.0 mm/hr 0.00 in0.0 mm
02:00 PM 44.2°F6.8°C 32.4°F0.2°C 63% 1.1 mph WNW1.8 kmh WNW 3.0 mph4.8 kmh 29.73 in1006.8 mb 0.00 in0.0 mm 0.00 in/hr0.0 mm/hr 0.00 in0.0 mm
01:50 PM 44.2°F6.8°C 32.8°F0.4°C 64% 1.3 mph NW2.1 kmh NW 2.0 mph3.2 kmh 29.73 in1006.8 mb 0.00 in0.0 mm 0.00 in/hr0.0 mm/hr 0.00 in0.0 mm
01:40 PM 43.1°F6.2°C 32.5°F0.3°C 66% Calm Calm -- 29.73 in1006.8 mb 0.00 in0.0 mm 0.00 in/hr0.0 mm/hr 0.00 in0.0 mm
01:30 PM 43.0°F6.1°C 32.4°F0.2°C 66% 0.4 mph NW0.6 kmh NW 3.0 mph4.8 kmh 29.73 in1006.8 mb 0.00 in0.0 mm 0.00 in/hr0.0 mm/hr 0.00 in0.0 mm
01:20 PM 42.9°F6.1°C 32.3°F0.2°C 66% 1.2 mph NNW1.9 kmh NNW 4.0 mph6.4 kmh 29.73 in1006.8 mb 0.00 in0.0 mm 0.00 in/hr0.0 mm/hr 0.00 in0.0 mm
01:10 PM 43.0°F6.1°C 32.4°F0.2°C 66% 1.5 mph WNW2.4 kmh WNW 5.0 mph8.0 kmh 29.73 in1006.8 mb 0.00 in0.0 mm 0.00 in/hr0.0 mm/hr 0.00 in0.0 mm
01:00 PM 42.9°F6.1°C 32.3°F0.2°C 66% 0.2 mph NW0.3 kmh NW -- 29.73 in1006.8 mb 0.00 in0.0 mm 0.00 in/hr0.0 mm/hr 0.00 in0.0 mm
12:50 PM 42.6°F5.9°C 32.4°F0.2°C 67% 2.4 mph WNW3.9 kmh WNW 8.0 mph12.9 kmh 29.73 in1006.8 mb 0.00 in0.0 mm 0.00 in/hr0.0 mm/hr 0.00 in0.0 mm
12:40 PM 42.2°F5.7°C 32.0°F0.0°C 67% 1.2 mph W1.9 kmh W 2.0 mph3.2 kmh 29.73 in1006.8 mb 0.00 in0.0 mm 0.00 in/hr0.0 mm/hr 0.00 in0.0 mm
12:30 PM 41.9°F5.5°C 31.7°F-0.2°C 67% 2.1 mph W3.4 kmh W 9.0 mph14.5 kmh 29.73 in1006.8 mb 0.00 in0.0 mm 0.00 in/hr0.0 mm/hr 0.00 in0.0 mm
12:20 PM 41.8°F5.4°C 32.0°F0.0°C 68% 1.0 mph WNW1.6 kmh WNW 3.0 mph4.8 kmh 29.73 in1006.8 mb 0.00 in0.0 mm 0.00 in/hr0.0 mm/hr 0.00 in0.0 mm
12:10 PM 41.7°F5.4°C 31.9°F-0.1°C 68% 1.1 mph W1.8 kmh W 9.0 mph14.5 kmh 29.73 in1006.8 mb 0.00 in0.0 mm 0.00 in/hr0.0 mm/hr 0.00 in0.0 mm
12:00 PM 41.4°F5.2°C 32.0°F0.0°C 69% 1.1 mph WNW1.8 kmh WNW 3.0 mph4.8 kmh 29.73 in1006.8 mb 0.00 in0.0 mm 0.00 in/hr0.0 mm/hr 0.00 in0.0 mm
11:50 AM 40.9°F4.9°C 31.9°F-0.1°C 70% 0.2 mph W0.3 kmh W 1.0 mph1.6 kmh 29.73 in1006.8 mb 0.00 in0.0 mm 0.00 in/hr0.0 mm/hr 0.00 in0.0 mm
11:40 AM 40.9°F4.9°C 31.9°F-0.1°C 70% 1.3 mph W2.1 kmh W 4.0 mph6.4 kmh 29.73 in1006.8 mb 0.00 in0.0 mm 0.00 in/hr0.0 mm/hr 0.00 in0.0 mm
11:30 AM 40.7°F4.8°C 32.0°F0.0°C 71% 1.0 mph NW1.6 kmh NW 6.0 mph9.7 kmh 29.73 in1006.8 mb 0.00 in0.0 mm 0.00 in/hr0.0 mm/hr 0.00 in0.0 mm
11:20 AM 39.8°F4.3°C 31.9°F-0.1°C 73% 2.9 mph NW4.7 kmh NW 8.0 mph12.9 kmh 29.72 in1006.4 mb 0.00 in0.0 mm 0.00 in/hr0.0 mm/hr 0.00 in0.0 mm
11:10 AM 39.2°F4.0°C 31.3°F-0.4°C 73% 4.6 mph WNW7.4 kmh WNW 6.0 mph9.7 kmh 29.73 in1006.8 mb 0.00 in0.0 mm 0.00 in/hr0.0 mm/hr 0.00 in0.0 mm
11:00 AM 38.5°F3.6°C 31.3°F-0.4°C 75% 2.9 mph WSW4.7 kmh WSW 5.0 mph8.0 kmh 29.73 in1006.8 mb 0.00 in0.0 mm 0.00 in/hr0.0 mm/hr 0.00 in0.0 mm
10:50 AM 38.1°F3.4°C 31.2°F-0.4°C 76% 2.2 mph W3.5 kmh W 2.0 mph3.2 kmh 29.73 in1006.8 mb 0.00 in0.0 mm 0.00 in/hr0.0 mm/hr 0.00 in0.0 mm
10:40 AM 37.6°F3.1°C 31.1°F-0.5°C 77% 1.0 mph W1.6 kmh W 1.0 mph1.6 kmh 29.72 in1006.4 mb 0.00 in0.0 mm 0.00 in/hr0.0 mm/hr 0.00 in0.0 mm
10:30 AM 36.6°F2.6°C 30.7°F-0.7°C 79% 0.5 mph WNW0.8 kmh WNW 5.0 mph8.0 kmh 29.72 in1006.4 mb 0.00 in0.0 mm 0.00 in/hr0.0 mm/hr 0.00 in0.0 mm
10:20 AM 36.0°F2.2°C 30.5°F-0.8°C 80% Calm Calm -- 29.72 in1006.4 mb 0.00 in0.0 mm 0.00 in/hr0.0 mm/hr 0.00 in0.0 mm
10:10 AM 35.9°F2.2°C 30.3°F-0.9°C 80% 1.4 mph WNW2.3 kmh WNW 5.0 mph8.0 kmh 29.72 in1006.4 mb 0.00 in0.0 mm 0.00 in/hr0.0 mm/hr 0.00 in0.0 mm
10:00 AM 35.4°F1.9°C 30.1°F-1.1°C 81% 1.5 mph W2.4 kmh W 5.0 mph8.0 kmh 29.72 in1006.4 mb 0.00 in0.0 mm 0.00 in/hr0.0 mm/hr 0.00 in0.0 mm
09:50 AM 35.0°F1.7°C 29.8°F-1.2°C 81% 1.7 mph WSW2.7 kmh WSW 6.0 mph9.7 kmh 29.71 in1006.1 mb 0.00 in0.0 mm 0.00 in/hr0.0 mm/hr 0.00 in0.0 mm
09:40 AM 34.1°F1.2°C 29.2°F-1.6°C 82% 2.1 mph WSW3.4 kmh WSW 5.0 mph8.0 kmh 29.70 in1005.8 mb 0.00 in0.0 mm 0.00 in/hr0.0 mm/hr 0.00 in0.0 mm
09:30 AM 33.1°F0.6°C 28.5°F-1.9°C 83% 0.9 mph W1.4 kmh W 2.0 mph3.2 kmh 29.70 in1005.8 mb 0.00 in0.0 mm 0.00 in/hr0.0 mm/hr 0.00 in0.0 mm
09:20 AM 32.1°F0.1°C 27.8°F-2.3°C 84% 1.6 mph SW2.6 kmh SW 3.0 mph4.8 kmh 29.70 in1005.8 mb 0.00 in0.0 mm 0.00 in/hr0.0 mm/hr 0.00 in0.0 mm
09:10 AM 31.1°F-0.5°C 26.9°F-2.8°C 84% Calm Calm -- 29.70 in1005.8 mb 0.00 in0.0 mm 0.00 in/hr0.0 mm/hr 0.00 in0.0 mm
09:00 AM 30.8°F-0.7°C 26.8°F-2.9°C 85% 0.4 mph NNW0.6 kmh NNW 2.0 mph3.2 kmh 29.71 in1006.1 mb 0.00 in0.0 mm 0.00 in/hr0.0 mm/hr 0.00 in0.0 mm
08:50 AM 30.6°F-0.8°C 26.6°F-3.0°C 85% Calm Calm -- 29.71 in1006.1 mb 0.00 in0.0 mm 0.00 in/hr0.0 mm/hr 0.00 in0.0 mm
08:40 AM 30.3°F-0.9°C 26.3°F-3.2°C 85% Calm Calm -- 29.71 in1006.1 mb 0.00 in0.0 mm 0.00 in/hr0.0 mm/hr 0.00 in0.0 mm
08:30 AM 30.1°F-1.1°C 26.1°F-3.3°C 85% Calm Calm -- 29.71 in1006.1 mb 0.00 in0.0 mm 0.00 in/hr0.0 mm/hr 0.00 in0.0 mm
08:20 AM 30.0°F-1.1°C 26.0°F-3.3°C 85% Calm Calm -- 29.71 in1006.1 mb 0.00 in0.0 mm 0.00 in/hr0.0 mm/hr 0.00 in0.0 mm
08:10 AM 29.9°F-1.2°C 25.9°F-3.4°C 85% Calm Calm -- 29.71 in1006.1 mb 0.00 in0.0 mm 0.00 in/hr0.0 mm/hr 0.00 in0.0 mm
08:00 AM 29.8°F-1.2°C 25.8°F-3.4°C 85% Calm Calm -- 29.71 in1006.1 mb 0.00 in0.0 mm 0.00 in/hr0.0 mm/hr 0.00 in0.0 mm
07:50 AM 29.5°F-1.4°C 25.6°F-3.6°C 85% Calm Calm -- 29.71 in1006.1 mb 0.00 in0.0 mm 0.00 in/hr0.0 mm/hr 0.00 in0.0 mm
07:40 AM 29.0°F-1.7°C 24.8°F-4.0°C 84% Calm Calm -- 29.71 in1006.1 mb 0.00 in0.0 mm 0.00 in/hr0.0 mm/hr 0.00 in0.0 mm
07:30 AM 28.8°F-1.8°C 24.6°F-4.1°C 84% Calm Calm -- 29.71 in1006.1 mb 0.00 in0.0 mm 0.00 in/hr0.0 mm/hr 0.00 in0.0 mm
07:20 AM 28.6°F-1.9°C 24.4°F-4.2°C 84% Calm Calm -- 29.71 in1006.1 mb 0.00 in0.0 mm 0.00 in/hr0.0 mm/hr 0.00 in0.0 mm
07:10 AM 28.4°F-2.0°C 24.2°F-4.3°C 84% 0.5 mph S0.8 kmh S -- 29.71 in1006.1 mb 0.00 in0.0 mm 0.00 in/hr0.0 mm/hr 0.00 in0.0 mm
07:00 AM 28.1°F-2.2°C 23.9°F-4.5°C 84% 1.1 mph S1.8 kmh S 2.0 mph3.2 kmh 29.71 in1006.1 mb 0.00 in0.0 mm 0.00 in/hr0.0 mm/hr 0.00 in0.0 mm
06:50 AM 28.0°F-2.2°C 23.5°F-4.7°C 83% 0.1 mph S0.2 kmh S 2.0 mph3.2 kmh 29.72 in1006.4 mb 0.00 in0.0 mm 0.00 in/hr0.0 mm/hr 0.00 in0.0 mm
06:40 AM 27.9°F-2.3°C 23.4°F-4.8°C 83% Calm Calm -- 29.72 in1006.4 mb 0.00 in0.0 mm 0.00 in/hr0.0 mm/hr 0.00 in0.0 mm
06:30 AM 27.8°F-2.3°C 23.3°F-4.8°C 83% 0.5 mph S0.8 kmh S 3.0 mph4.8 kmh 29.73 in1006.8 mb 0.00 in0.0 mm 0.00 in/hr0.0 mm/hr 0.00 in0.0 mm
06:20 AM 27.7°F-2.4°C 23.2°F-4.9°C 83% 1.2 mph S1.9 kmh S 1.0 mph1.6 kmh 29.72 in1006.4 mb 0.00 in0.0 mm 0.00 in/hr0.0 mm/hr 0.00 in0.0 mm
06:10 AM 27.7°F-2.4°C 23.2°F-4.9°C 83% 1.1 mph S1.8 kmh S 1.0 mph1.6 kmh 29.74 in1007.1 mb 0.00 in0.0 mm 0.00 in/hr0.0 mm/hr 0.00 in0.0 mm
06:00 AM 27.6°F-2.4°C 23.1°F-4.9°C 83% 0.7 mph S1.1 kmh S 4.0 mph6.4 kmh 29.74 in1007.1 mb 0.00 in0.0 mm 0.00 in/hr0.0 mm/hr 0.00 in0.0 mm
05:50 AM 27.5°F-2.5°C 23.0°F-5.0°C 83% Calm Calm -- 29.75 in1007.5 mb 0.00 in0.0 mm 0.00 in/hr0.0 mm/hr 0.00 in0.0 mm
05:40 AM 27.3°F-2.6°C 22.8°F-5.1°C 83% Calm Calm -- 29.76 in1007.8 mb 0.00 in0.0 mm 0.00 in/hr0.0 mm/hr 0.00 in0.0 mm
05:30 AM 27.0°F-2.8°C 22.5°F-5.3°C 83% 0.7 mph SSW1.1 kmh SSW 3.0 mph4.8 kmh 29.76 in1007.8 mb 0.00 in0.0 mm 0.00 in/hr0.0 mm/hr 0.00 in0.0 mm
05:20 AM 26.9°F-2.8°C 22.1°F-5.5°C 82% 0.9 mph S1.4 kmh S 2.0 mph3.2 kmh 29.75 in1007.5 mb 0.00 in0.0 mm 0.00 in/hr0.0 mm/hr 0.00 in0.0 mm
05:10 AM 26.6°F-3.0°C 21.8°F-5.7°C 82% 1.2 mph S1.9 kmh S 4.0 mph6.4 kmh 29.76 in1007.8 mb 0.00 in0.0 mm 0.00 in/hr0.0 mm/hr 0.00 in0.0 mm
05:00 AM 26.5°F-3.1°C 21.7°F-5.7°C 82% 0.1 mph SSW0.2 kmh SSW 3.0 mph4.8 kmh 29.78 in1008.5 mb 0.00 in0.0 mm 0.00 in/hr0.0 mm/hr 0.00 in0.0 mm
04:50 AM 26.3°F-3.2°C 21.3°F-5.9°C 81% 1.6 mph S2.6 kmh S 4.0 mph6.4 kmh 29.78 in1008.5 mb 0.00 in0.0 mm 0.00 in/hr0.0 mm/hr 0.00 in0.0 mm
04:40 AM 26.2°F-3.2°C 21.2°F-6.0°C 81% 0.5 mph S0.8 kmh S 5.0 mph8.0 kmh 29.79 in1008.8 mb 0.00 in0.0 mm 0.00 in/hr0.0 mm/hr 0.00 in0.0 mm
04:30 AM 26.1°F-3.3°C 21.1°F-6.1°C 81% Calm Calm -- 29.80 in1009.1 mb 0.00 in0.0 mm 0.00 in/hr0.0 mm/hr 0.00 in0.0 mm
04:20 AM 26.0°F-3.3°C 20.9°F-6.2°C 81% 1.4 mph SSE2.3 kmh SSE 5.0 mph8.0 kmh 29.77 in1008.1 mb 0.00 in0.0 mm 0.00 in/hr0.0 mm/hr 0.00 in0.0 mm
04:10 AM 25.8°F-3.4°C 20.4°F-6.4°C 80% 0.1 mph S0.2 kmh S 3.0 mph4.8 kmh 29.78 in1008.5 mb 0.00 in0.0 mm 0.00 in/hr0.0 mm/hr 0.00 in0.0 mm
04:00 AM 25.6°F-3.6°C 20.3°F-6.5°C 80% 0.7 mph SSE1.1 kmh SSE 4.0 mph6.4 kmh 29.78 in1008.5 mb 0.00 in0.0 mm 0.00 in/hr0.0 mm/hr 0.00 in0.0 mm
03:50 AM 25.3°F-3.7°C 20.0°F-6.7°C 80% 0.4 mph S0.6 kmh S 1.0 mph1.6 kmh 29.80 in1009.1 mb 0.00 in0.0 mm 0.00 in/hr0.0 mm/hr 0.00 in0.0 mm
03:40 AM 25.1°F-3.8°C 19.5°F-6.9°C 79% 0.5 mph SSE0.8 kmh SSE 3.0 mph4.8 kmh 29.81 in1009.5 mb 0.00 in0.0 mm 0.00 in/hr0.0 mm/hr 0.00 in0.0 mm
03:30 AM 24.8°F-4.0°C 19.2°F-7.1°C 79% 0.8 mph S1.3 kmh S 5.0 mph8.0 kmh 29.82 in1009.8 mb 0.00 in0.0 mm 0.00 in/hr0.0 mm/hr 0.00 in0.0 mm
03:20 AM 24.5°F-4.2°C 18.6°F-7.4°C 78% Calm Calm -- 29.83 in1010.2 mb 0.00 in0.0 mm 0.00 in/hr0.0 mm/hr 0.00 in0.0 mm
03:10 AM 24.5°F-4.2°C 18.3°F-7.6°C 77% 1.0 mph S1.6 kmh S 5.0 mph8.0 kmh 29.83 in1010.2 mb 0.00 in0.0 mm 0.00 in/hr0.0 mm/hr 0.00 in0.0 mm
03:00 AM 24.4°F-4.2°C 18.5°F-7.5°C 78% 2.3 mph S3.7 kmh S 4.0 mph6.4 kmh 29.84 in1010.5 mb 0.00 in0.0 mm 0.00 in/hr0.0 mm/hr 0.00 in0.0 mm
02:50 AM 24.2°F-4.3°C 18.0°F-7.8°C 77% 0.5 mph S0.8 kmh S 3.0 mph4.8 kmh 29.85 in1010.8 mb 0.00 in0.0 mm 0.00 in/hr0.0 mm/hr 0.00 in0.0 mm
02:40 AM 24.0°F-4.4°C 17.8°F-7.9°C 77% 1.4 mph SSW2.3 kmh SSW 3.0 mph4.8 kmh 29.87 in1011.5 mb 0.00 in0.0 mm 0.00 in/hr0.0 mm/hr 0.00 in0.0 mm
02:30 AM 24.0°F-4.4°C 17.8°F-7.9°C 77% 1.2 mph SSE1.9 kmh SSE 2.0 mph3.2 kmh 29.89 in1012.2 mb 0.00 in0.0 mm 0.00 in/hr0.0 mm/hr 0.00 in0.0 mm
02:20 AM 23.9°F-4.5°C 17.4°F-8.1°C 76% 0.4 mph S0.6 kmh S 2.0 mph3.2 kmh 29.91 in1012.9 mb 0.00 in0.0 mm 0.00 in/hr0.0 mm/hr 0.00 in0.0 mm
02:10 AM 23.8°F-4.6°C 17.3°F-8.2°C 76% 1.9 mph S3.1 kmh S 3.0 mph4.8 kmh 29.90 in1012.5 mb 0.00 in0.0 mm 0.00 in/hr0.0 mm/hr 0.00 in0.0 mm
02:00 AM 23.7°F-4.6°C 17.2°F-8.2°C 76% 2.9 mph S4.7 kmh S 5.0 mph8.0 kmh 29.91 in1012.9 mb 0.00 in0.0 mm 0.00 in/hr0.0 mm/hr 0.00 in0.0 mm
01:50 AM 23.6°F-4.7°C 17.1°F-8.3°C 76% Calm Calm -- 29.91 in1012.9 mb 0.00 in0.0 mm 0.00 in/hr0.0 mm/hr 0.00 in0.0 mm
01:40 AM 23.5°F-4.7°C 17.0°F-8.3°C 76% 0.9 mph S1.4 kmh S 3.0 mph4.8 kmh 29.91 in1012.9 mb 0.00 in0.0 mm 0.00 in/hr0.0 mm/hr 0.00 in0.0 mm
01:30 AM 23.4°F-4.8°C 16.6°F-8.6°C 75% 2.5 mph S4.0 kmh S 6.0 mph9.7 kmh 29.90 in1012.5 mb 0.00 in0.0 mm 0.00 in/hr0.0 mm/hr 0.00 in0.0 mm
01:20 AM 23.4°F-4.8°C 16.6°F-8.6°C 75% 1.9 mph S3.1 kmh S 4.0 mph6.4 kmh 29.92 in1013.2 mb 0.00 in0.0 mm 0.00 in/hr0.0 mm/hr 0.00 in0.0 mm
01:10 AM 23.4°F-4.8°C 16.6°F-8.6°C 75% 2.4 mph S3.9 kmh S 7.0 mph11.3 kmh 29.93 in1013.5 mb 0.00 in0.0 mm 0.00 in/hr0.0 mm/hr 0.00 in0.0 mm
01:00 AM 23.3°F-4.8°C 16.5°F-8.6°C 75% 3.2 mph S5.1 kmh S 4.0 mph6.4 kmh 29.94 in1013.9 mb 0.00 in0.0 mm 0.00 in/hr0.0 mm/hr 0.00 in0.0 mm
12:50 AM 23.3°F-4.8°C 16.5°F-8.6°C 75% 0.1 mph S0.2 kmh S 3.0 mph4.8 kmh 29.95 in1014.2 mb 0.00 in0.0 mm 0.00 in/hr0.0 mm/hr 0.00 in0.0 mm
12:40 AM 23.1°F-4.9°C 16.7°F-8.5°C 76% 2.1 mph S3.4 kmh S 5.0 mph8.0 kmh 29.95 in1014.2 mb 0.00 in0.0 mm 0.00 in/hr0.0 mm/hr 0.00 in0.0 mm
12:30 AM 23.1°F-4.9°C 16.4°F-8.7°C 75% 1.7 mph S2.7 kmh S 3.0 mph4.8 kmh 29.95 in1014.2 mb 0.00 in0.0 mm 0.00 in/hr0.0 mm/hr 0.00 in0.0 mm
12:20 AM 23.1°F-4.9°C 16.3°F-8.7°C 75% 0.9 mph S1.4 kmh S 2.0 mph3.2 kmh 29.95 in1014.2 mb 0.00 in0.0 mm 0.00 in/hr0.0 mm/hr 0.00 in0.0 mm
12:10 AM 23.1°F-4.9°C 16.4°F-8.7°C 75% 2.1 mph S3.4 kmh S 4.0 mph6.4 kmh 29.96 in1014.6 mb 0.00 in0.0 mm 0.00 in/hr0.0 mm/hr 0.00 in0.0 mm
12:00 AM 23.1°F-4.9°C 16.4°F-8.7°C 75% 0.8 mph SSW1.3 kmh SSW 2.0 mph3.2 kmh 29.99 in1015.6 mb 0.00 in0.0 mm 0.00 in/hr0.0 mm/hr 0.00 in0.0 mm